Terminal Aerodrome Forecast
Issued by NWS Austin/San Antonio, TX

Home | Current Version | Previous Version | Text Only | Print | Product List | Glossary On
Versions: 1 2 3 4 5 6 7 8 9 10 11 12 13 14 15 16 17 18 19 20
000
FTUS44 KEWX 011700 CCA
TAFDRT
TAF COR
KDRT 011758Z 0118/0218 30006KT 6SM BR OVC009
     FM012000 11005KT P6SM OVC011
     FM020600 08006KT P6SM OVC007
     FM020900 07005KT 3SM BR OVC004=

USA.gov is the U.S. government's official web portal to all federal, state and local government web resources and services.